sensor_id;sensor_type;location;lat;lon;timestamp;pressure;altitude;pressure_sealevel;temperature;humidity
19783;BME280;10051;40.294;-3.754;2023-04-28T00:01:48;93945.91;;;24.26;30.50
19783;BME280;10051;40.294;-3.754;2023-04-28T00:04:13;93945.84;;;24.18;30.53
19783;BME280;10051;40.294;-3.754;2023-04-28T00:06:39;93941.78;;;23.98;31.03
19783;BME280;10051;40.294;-3.754;2023-04-28T00:09:05;93950.13;;;23.89;31.13
19783;BME280;10051;40.294;-3.754;2023-04-28T00:11:35;93948.53;;;23.81;30.98
19783;BME280;10051;40.294;-3.754;2023-04-28T00:14:01;93932.66;;;23.68;30.05
19783;BME280;10051;40.294;-3.754;2023-04-28T00:16:26;93939.88;;;23.60;30.13
19783;BME280;10051;40.294;-3.754;2023-04-28T00:18:52;93935.53;;;23.49;30.00
19783;BME280;10051;40.294;-3.754;2023-04-28T00:21:17;93944.81;;;23.55;30.21
19783;BME280;10051;40.294;-3.754;2023-04-28T00:23:43;93917.84;;;23.44;30.24
19783;BME280;10051;40.294;-3.754;2023-04-28T00:26:09;93940.66;;;23.61;30.26
19783;BME280;10051;40.294;-3.754;2023-04-28T00:28:35;93924.06;;;23.52;29.97
19783;BME280;10051;40.294;-3.754;2023-04-28T00:31:01;93947.91;;;23.57;30.40
19783;BME280;10051;40.294;-3.754;2023-04-28T00:33:26;93931.97;;;23.37;31.13
19783;BME280;10051;40.294;-3.754;2023-04-28T00:35:59;93935.78;;;23.36;30.98
19783;BME280;10051;40.294;-3.754;2023-04-28T00:38:25;93863.88;;;22.84;31.36
19783;BME280;10051;40.294;-3.754;2023-04-28T00:40:51;93938.03;;;23.30;31.47
19783;BME280;10051;40.294;-3.754;2023-04-28T00:43:16;93914.22;;;23.29;31.22
19783;BME280;10051;40.294;-3.754;2023-04-28T00:45:42;93930.38;;;23.33;31.70
19783;BME280;10051;40.294;-3.754;2023-04-28T00:48:07;93915.63;;;23.19;31.75
19783;BME280;10051;40.294;-3.754;2023-04-28T00:50:33;93917.63;;;23.22;31.89
19783;BME280;10051;40.294;-3.754;2023-04-28T00:52:59;93924.84;;;23.22;32.04
19783;BME280;10051;40.294;-3.754;2023-04-28T00:55:25;93917.16;;;23.16;32.02
19783;BME280;10051;40.294;-3.754;2023-04-28T00:57:54;93922.53;;;23.20;32.09
19783;BME280;10051;40.294;-3.754;2023-04-28T01:00:20;93925.56;;;23.18;32.29
19783;BME280;10051;40.294;-3.754;2023-04-28T01:02:46;93917.78;;;23.06;32.99
19783;BME280;10051;40.294;-3.754;2023-04-28T01:05:12;93902.75;;;22.98;32.97
19783;BME280;10051;40.294;-3.754;2023-04-28T01:07:39;93888.72;;;23.12;32.49
19783;BME280;10051;40.294;-3.754;2023-04-28T01:10:04;93913.19;;;23.37;32.00
19783;BME280;10051;40.294;-3.754;2023-04-28T01:12:31;93887.81;;;23.31;31.92
19783;BME280;10051;40.294;-3.754;2023-04-28T01:14:57;93882.53;;;23.38;31.71
19783;BME280;10051;40.294;-3.754;2023-04-28T01:17:22;93880.19;;;23.33;31.76
19783;BME280;10051;40.294;-3.754;2023-04-28T01:19:48;93888.22;;;23.33;31.89
19783;BME280;10051;40.294;-3.754;2023-04-28T01:22:13;93866.56;;;23.15;31.64
19783;BME280;10051;40.294;-3.754;2023-04-28T01:24:41;93897.56;;;23.46;31.58
19783;BME280;10051;40.294;-3.754;2023-04-28T01:27:06;93886.13;;;23.53;31.19
19783;BME280;10051;40.294;-3.754;2023-04-28T01:29:32;93900.78;;;23.63;30.98
19783;BME280;10051;40.294;-3.754;2023-04-28T01:31:57;93867.19;;;23.35;31.37
19783;BME280;10051;40.294;-3.754;2023-04-28T01:34:23;93888.31;;;23.40;31.73
19783;BME280;10051;40.294;-3.754;2023-04-28T01:36:48;93895.09;;;23.30;32.07
19783;BME280;10051;40.294;-3.754;2023-04-28T01:39:14;93895.03;;;23.23;32.42
19783;BME280;10051;40.294;-3.754;2023-04-28T01:41:41;93887.56;;;23.09;33.22
19783;BME280;10051;40.294;-3.754;2023-04-28T01:44:06;93855.84;;;22.84;32.82
19783;BME280;10051;40.294;-3.754;2023-04-28T01:46:32;93883.53;;;22.92;33.26
19783;BME280;10051;40.294;-3.754;2023-04-28T01:48:58;93898.41;;;22.90;33.00
19783;BME280;10051;40.294;-3.754;2023-04-28T01:51:23;93875.34;;;22.81;32.97
19783;BME280;10051;40.294;-3.754;2023-04-28T01:53:49;93893.03;;;22.86;33.14
19783;BME280;10051;40.294;-3.754;2023-04-28T01:56:15;93892.13;;;22.78;32.91
19783;BME280;10051;40.294;-3.754;2023-04-28T01:58:40;93870.47;;;22.60;33.07
19783;BME280;10051;40.294;-3.754;2023-04-28T02:01:06;93850.91;;;22.56;32.93
19783;BME280;10051;40.294;-3.754;2023-04-28T02:03:31;93887.56;;;22.79;32.65
19783;BME280;10051;40.294;-3.754;2023-04-28T02:05:58;93852.66;;;22.75;32.26
19783;BME280;10051;40.294;-3.754;2023-04-28T02:08:23;93872.44;;;22.94;32.07
19783;BME280;10051;40.294;-3.754;2023-04-28T02:10:49;93862.53;;;22.98;31.67
19783;BME280;10051;40.294;-3.754;2023-04-28T02:13:15;93857.56;;;23.00;31.45
19783;BME280;10051;40.294;-3.754;2023-04-28T02:15:42;93868.06;;;23.12;31.34
19783;BME280;10051;40.294;-3.754;2023-04-28T02:18:11;93878.78;;;23.12;31.26
19783;BME280;10051;40.294;-3.754;2023-04-28T02:20:36;93887.50;;;23.06;31.34
19783;BME280;10051;40.294;-3.754;2023-04-28T02:23:02;93817.78;;;22.68;31.02
19783;BME280;10051;40.294;-3.754;2023-04-28T02:25:27;93854.03;;;22.92;31.32
19783;BME280;10051;40.294;-3.754;2023-04-28T02:27:53;93822.31;;;22.64;31.27
19783;BME280;10051;40.294;-3.754;2023-04-28T02:30:18;93829.31;;;22.72;31.24
19783;BME280;10051;40.294;-3.754;2023-04-28T02:32:44;93865.13;;;22.91;31.43
19783;BME280;10051;40.294;-3.754;2023-04-28T02:35:10;93876.44;;;23.07;31.41
19783;BME280;10051;40.294;-3.754;2023-04-28T02:37:35;93881.31;;;23.01;31.17
19783;BME280;10051;40.294;-3.754;2023-04-28T02:40:01;93874.50;;;23.08;31.28
19783;BME280;10051;40.294;-3.754;2023-04-28T02:42:26;93830.09;;;22.76;31.38
19783;BME280;10051;40.294;-3.754;2023-04-28T02:44:52;93827.09;;;22.81;31.40
19783;BME280;10051;40.294;-3.754;2023-04-28T02:47:18;93842.94;;;22.94;31.36
19783;BME280;10051;40.294;-3.754;2023-04-28T02:49:44;93867.97;;;23.05;31.58
19783;BME280;10051;40.294;-3.754;2023-04-28T02:52:10;93851.38;;;22.92;31.75
19783;BME280;10051;40.294;-3.754;2023-04-28T02:54:35;93856.34;;;22.94;31.52
19783;BME280;10051;40.294;-3.754;2023-04-28T02:57:01;93859.13;;;23.01;31.37
19783;BME280;10051;40.294;-3.754;2023-04-28T02:59:29;93862.84;;;22.93;31.61
19783;BME280;10051;40.294;-3.754;2023-04-28T03:01:55;93860.84;;;22.86;31.81
19783;BME280;10051;40.294;-3.754;2023-04-28T03:04:21;93838.38;;;22.64;32.54
19783;BME280;10051;40.294;-3.754;2023-04-28T03:06:47;93856.31;;;22.60;32.38
19783;BME280;10051;40.294;-3.754;2023-04-28T03:09:13;93829.84;;;22.27;32.88
19783;BME280;10051;40.294;-3.754;2023-04-28T03:11:39;93868.50;;;22.30;33.52
19783;BME280;10051;40.294;-3.754;2023-04-28T03:14:05;93878.66;;;22.44;33.38
19783;BME280;10051;40.294;-3.754;2023-04-28T03:16:32;93872.50;;;22.17;33.93
19783;BME280;10051;40.294;-3.754;2023-04-28T03:18:57;93875.06;;;22.09;33.63
19783;BME280;10051;40.294;-3.754;2023-04-28T03:21:23;93876.72;;;22.18;33.05
19783;BME280;10051;40.294;-3.754;2023-04-28T03:23:51;93878.16;;;22.11;34.02
19783;BME280;10051;40.294;-3.754;2023-04-28T03:26:16;93867.59;;;21.95;33.90
19783;BME280;10051;40.294;-3.754;2023-04-28T03:28:42;93852.88;;;21.82;33.88
19783;BME280;10051;40.294;-3.754;2023-04-28T03:31:07;93870.75;;;22.01;33.61
19783;BME280;10051;40.294;-3.754;2023-04-28T03:33:33;93862.34;;;22.03;34.08
19783;BME280;10051;40.294;-3.754;2023-04-28T03:35:58;93871.06;;;21.96;34.10
19783;BME280;10051;40.294;-3.754;2023-04-28T03:38:24;93882.94;;;21.98;33.85
19783;BME280;10051;40.294;-3.754;2023-04-28T03:40:50;93880.50;;;22.13;33.46
19783;BME280;10051;40.294;-3.754;2023-04-28T03:43:15;93866.75;;;21.91;34.29
19783;BME280;10051;40.294;-3.754;2023-04-28T03:45:41;93840.22;;;21.59;34.25
19783;BME280;10051;40.294;-3.754;2023-04-28T03:48:07;93867.97;;;21.71;34.64
19783;BME280;10051;40.294;-3.754;2023-04-28T03:50:32;93842.66;;;21.45;34.79
19783;BME280;10051;40.294;-3.754;2023-04-28T03:52:58;93854.84;;;21.42;34.73
19783;BME280;10051;40.294;-3.754;2023-04-28T03:55:24;93875.88;;;21.63;34.71
19783;BME280;10051;40.294;-3.754;2023-04-28T03:57:50;93861.13;;;21.73;34.44
19783;BME280;10051;40.294;-3.754;2023-04-28T04:00:16;93880.13;;;21.91;34.15
19783;BME280;10051;40.294;-3.754;2023-04-28T04:02:42;93865.84;;;21.80;34.63
19783;BME280;10051;40.294;-3.754;2023-04-28T04:05:08;93873.25;;;21.67;35.10
19783;BME280;10051;40.294;-3.754;2023-04-28T04:07:33;93880.09;;;21.64;34.93
19783;BME280;10051;40.294;-3.754;2023-04-28T04:09:59;93867.38;;;21.61;34.74
19783;BME280;10051;40.294;-3.754;2023-04-28T04:12:25;93866.97;;;21.59;34.62
19783;BME280;10051;40.294;-3.754;2023-04-28T04:14:50;93870.22;;;21.68;34.53
19783;BME280;10051;40.294;-3.754;2023-04-28T04:17:16;93832.91;;;21.56;33.89
19783;BME280;10051;40.294;-3.754;2023-04-28T04:19:42;93854.41;;;21.83;33.80
19783;BME280;10051;40.294;-3.754;2023-04-28T04:22:07;93806.03;;;21.49;33.80
19783;BME280;10051;40.294;-3.754;2023-04-28T04:24:33;93873.72;;;21.96;33.45
19783;BME280;10051;40.294;-3.754;2023-04-28T04:26:58;93868.31;;;21.92;33.71
19783;BME280;10051;40.294;-3.754;2023-04-28T04:29:26;93877.03;;;21.89;33.92
19783;BME280;10051;40.294;-3.754;2023-04-28T04:31:52;93834.59;;;21.64;33.68
19783;BME280;10051;40.294;-3.754;2023-04-28T04:34:21;93861.47;;;21.72;34.36
19783;BME280;10051;40.294;-3.754;2023-04-28T04:36:47;93898.09;;;21.67;34.49
19783;BME280;10051;40.294;-3.754;2023-04-28T04:39:12;93890.63;;;21.57;34.74
19783;BME280;10051;40.294;-3.754;2023-04-28T04:41:38;93874.53;;;21.34;34.88
19783;BME280;10051;40.294;-3.754;2023-04-28T04:44:04;93847.75;;;21.30;34.64
19783;BME280;10051;40.294;-3.754;2023-04-28T04:46:30;93874.03;;;21.48;34.41
19783;BME280;10051;40.294;-3.754;2023-04-28T04:48:56;93937.72;;;21.81;34.42
19783;BME280;10051;40.294;-3.754;2023-04-28T04:51:21;93924.44;;;21.65;34.68
19783;BME280;10051;40.294;-3.754;2023-04-28T04:53:47;93916.84;;;21.67;34.81
19783;BME280;10051;40.294;-3.754;2023-04-28T04:56:13;93861.72;;;21.43;34.65
19783;BME280;10051;40.294;-3.754;2023-04-28T04:58:41;93891.91;;;21.63;34.46
19783;BME280;10051;40.294;-3.754;2023-04-28T05:01:08;93920.56;;;21.86;34.03
19783;BME280;10051;40.294;-3.754;2023-04-28T05:03:33;93922.38;;;21.78;34.06
19783;BME280;10051;40.294;-3.754;2023-04-28T05:05:59;93933.44;;;21.77;34.19
19783;BME280;10051;40.294;-3.754;2023-04-28T05:08:25;93941.50;;;21.80;34.03
19783;BME280;10051;40.294;-3.754;2023-04-28T05:10:51;93928.72;;;21.70;33.98
19783;BME280;10051;40.294;-3.754;2023-04-28T05:13:16;93943.00;;;21.78;34.01
19783;BME280;10051;40.294;-3.754;2023-04-28T05:15:42;93905.28;;;21.44;34.18
19783;BME280;10051;40.294;-3.754;2023-04-28T05:18:08;93928.31;;;21.48;34.53
19783;BME280;10051;40.294;-3.754;2023-04-28T05:20:35;93911.56;;;21.51;34.15
19783;BME280;10051;40.294;-3.754;2023-04-28T05:23:01;93938.78;;;21.77;33.89
19783;BME280;10051;40.294;-3.754;2023-04-28T05:25:27;93920.91;;;21.61;33.86
19783;BME280;10051;40.294;-3.754;2023-04-28T05:27:52;93943.78;;;21.59;34.42
19783;BME280;10051;40.294;-3.754;2023-04-28T05:30:18;93933.31;;;21.30;35.41
19783;BME280;10051;40.294;-3.754;2023-04-28T05:32:44;93936.75;;;21.50;34.82
19783;BME280;10051;40.294;-3.754;2023-04-28T05:35:09;93946.19;;;21.64;34.28
19783;BME280;10051;40.294;-3.754;2023-04-28T05:37:35;93925.34;;;21.53;34.03
19783;BME280;10051;40.294;-3.754;2023-04-28T05:40:02;93953.84;;;21.85;34.01
19783;BME280;10051;40.294;-3.754;2023-04-28T05:42:28;93955.50;;;21.93;33.73
19783;BME280;10051;40.294;-3.754;2023-04-28T05:44:53;93932.06;;;21.87;33.87
19783;BME280;10051;40.294;-3.754;2023-04-28T05:47:19;93937.28;;;21.79;34.03
19783;BME280;10051;40.294;-3.754;2023-04-28T05:49:45;93940.34;;;21.78;34.38
19783;BME280;10051;40.294;-3.754;2023-04-28T05:52:10;93958.84;;;21.67;34.56
19783;BME280;10051;40.294;-3.754;2023-04-28T05:54:36;93949.75;;;21.52;35.18
19783;BME280;10051;40.294;-3.754;2023-04-28T05:57:01;93952.88;;;21.34;35.81
19783;BME280;10051;40.294;-3.754;2023-04-28T05:59:27;93919.09;;;21.06;35.83
19783;BME280;10051;40.294;-3.754;2023-04-28T06:01:54;93948.66;;;21.33;35.48
19783;BME280;10051;40.294;-3.754;2023-04-28T06:04:20;93950.53;;;21.33;35.66
19783;BME280;10051;40.294;-3.754;2023-04-28T06:06:46;93954.00;;;21.33;35.66
19783;BME280;10051;40.294;-3.754;2023-04-28T06:09:11;93946.66;;;21.10;36.45
19783;BME280;10051;40.294;-3.754;2023-04-28T06:11:37;93952.97;;;21.02;36.30
19783;BME280;10051;40.294;-3.754;2023-04-28T06:14:03;93956.94;;;21.08;36.13
19783;BME280;10051;40.294;-3.754;2023-04-28T06:16:28;93976.06;;;21.10;36.09
19783;BME280;10051;40.294;-3.754;2023-04-28T06:18:54;93977.88;;;21.06;36.09
19783;BME280;10051;40.294;-3.754;2023-04-28T06:21:19;93991.09;;;20.99;36.25
19783;BME280;10051;40.294;-3.754;2023-04-28T06:23:45;93984.72;;;21.04;36.26
19783;BME280;10051;40.294;-3.754;2023-04-28T06:26:11;93977.19;;;21.09;36.25
19783;BME280;10051;40.294;-3.754;2023-04-28T06:28:37;94001.56;;;21.24;36.12
19783;BME280;10051;40.294;-3.754;2023-04-28T06:31:03;93999.84;;;21.16;35.91
19783;BME280;10051;40.294;-3.754;2023-04-28T06:33:28;93992.81;;;21.07;36.66
19783;BME280;10051;40.294;-3.754;2023-04-28T06:35:54;93945.22;;;20.77;36.69
19783;BME280;10051;40.294;-3.754;2023-04-28T06:38:20;93984.63;;;21.00;37.05
19783;BME280;10051;40.294;-3.754;2023-04-28T06:40:45;93965.38;;;20.91;37.31
19783;BME280;10051;40.294;-3.754;2023-04-28T06:43:11;93989.16;;;20.96;37.24
19783;BME280;10051;40.294;-3.754;2023-04-28T06:45:40;93975.88;;;20.84;37.66
19783;BME280;10051;40.294;-3.754;2023-04-28T06:48:06;93970.13;;;20.82;37.82
19783;BME280;10051;40.294;-3.754;2023-04-28T06:50:32;93976.81;;;20.91;37.42
19783;BME280;10051;40.294;-3.754;2023-04-28T06:52:58;93978.72;;;20.91;37.52
19783;BME280;10051;40.294;-3.754;2023-04-28T06:55:23;93974.66;;;20.81;37.98
19783;BME280;10051;40.294;-3.754;2023-04-28T06:57:49;93987.75;;;20.86;37.91
19783;BME280;10051;40.294;-3.754;2023-04-28T07:00:15;93960.38;;;20.73;37.49
19783;BME280;10051;40.294;-3.754;2023-04-28T07:02:41;93963.13;;;20.77;37.19
19783;BME280;10051;40.294;-3.754;2023-04-28T07:05:07;93990.25;;;20.95;37.27
19783;BME280;10051;40.294;-3.754;2023-04-28T07:07:33;93994.13;;;20.98;37.61
19783;BME280;10051;40.294;-3.754;2023-04-28T07:09:59;94007.03;;;21.12;37.62
19783;BME280;10051;40.294;-3.754;2023-04-28T07:12:26;93974.13;;;20.91;37.85
19783;BME280;10051;40.294;-3.754;2023-04-28T07:14:52;93910.41;;;20.58;37.76
19783;BME280;10051;40.294;-3.754;2023-04-28T07:17:17;93894.78;;;20.40;37.79
19783;BME280;10051;40.294;-3.754;2023-04-28T07:19:43;94011.75;;;21.18;37.57
19783;BME280;10051;40.294;-3.754;2023-04-28T07:22:09;94013.53;;;21.30;37.47
19783;BME280;10051;40.294;-3.754;2023-04-28T07:24:34;94018.59;;;21.35;37.62
19783;BME280;10051;40.294;-3.754;2023-04-28T07:27:00;94015.84;;;21.32;37.13
19783;BME280;10051;40.294;-3.754;2023-04-28T07:29:26;94027.88;;;21.42;37.16
19783;BME280;10051;40.294;-3.754;2023-04-28T07:31:58;94002.53;;;21.16;37.48
19783;BME280;10051;40.294;-3.754;2023-04-28T07:34:24;94023.78;;;21.28;37.99
19783;BME280;10051;40.294;-3.754;2023-04-28T07:36:49;94018.66;;;21.19;38.22
19783;BME280;10051;40.294;-3.754;2023-04-28T07:39:15;94014.06;;;21.20;37.88
19783;BME280;10051;40.294;-3.754;2023-04-28T07:41:40;94023.63;;;21.21;37.87
19783;BME280;10051;40.294;-3.754;2023-04-28T07:44:06;94003.75;;;21.02;37.73
19783;BME280;10051;40.294;-3.754;2023-04-28T07:46:35;94007.72;;;21.08;38.13
19783;BME280;10051;40.294;-3.754;2023-04-28T07:49:01;94028.28;;;21.24;37.86
19783;BME280;10051;40.294;-3.754;2023-04-28T07:51:27;93988.66;;;21.10;37.77
19783;BME280;10051;40.294;-3.754;2023-04-28T07:53:52;94009.22;;;21.25;37.71
19783;BME280;10051;40.294;-3.754;2023-04-28T07:56:18;93995.16;;;21.29;37.59
19783;BME280;10051;40.294;-3.754;2023-04-28T07:58:43;94019.44;;;21.59;37.04
19783;BME280;10051;40.294;-3.754;2023-04-28T08:01:09;94052.00;;;21.81;37.00
19783;BME280;10051;40.294;-3.754;2023-04-28T08:03:36;94049.75;;;21.83;37.30
19783;BME280;10051;40.294;-3.754;2023-04-28T08:06:02;94051.41;;;21.91;37.73
19783;BME280;10051;40.294;-3.754;2023-04-28T08:08:29;94049.72;;;22.03;36.99
19783;BME280;10051;40.294;-3.754;2023-04-28T08:10:55;94044.84;;;22.08;37.43
19783;BME280;10051;40.294;-3.754;2023-04-28T08:13:21;93993.00;;;21.74;38.09
19783;BME280;10051;40.294;-3.754;2023-04-28T08:15:47;94047.25;;;22.13;38.31
19783;BME280;10051;40.294;-3.754;2023-04-28T08:18:13;94045.34;;;22.14;38.18
19783;BME280;10051;40.294;-3.754;2023-04-28T08:20:39;94056.63;;;22.23;38.01
19783;BME280;10051;40.294;-3.754;2023-04-28T08:23:06;94052.19;;;22.35;38.05
19783;BME280;10051;40.294;-3.754;2023-04-28T08:25:32;94039.13;;;22.30;37.76
19783;BME280;10051;40.294;-3.754;2023-04-28T08:27:57;94050.28;;;22.55;37.76
19783;BME280;10051;40.294;-3.754;2023-04-28T08:30:23;94048.13;;;22.64;37.81
19783;BME280;10051;40.294;-3.754;2023-04-28T08:32:49;94050.97;;;22.75;38.04
19783;BME280;10051;40.294;-3.754;2023-04-28T08:35:14;94021.28;;;22.61;38.26
19783;BME280;10051;40.294;-3.754;2023-04-28T08:37:40;94049.47;;;23.01;37.61
19783;BME280;10051;40.294;-3.754;2023-04-28T08:40:06;94047.19;;;23.03;37.73
19783;BME280;10051;40.294;-3.754;2023-04-28T08:42:35;94063.81;;;23.12;37.84
19783;BME280;10051;40.294;-3.754;2023-04-28T08:45:03;94054.28;;;23.18;37.48
19783;BME280;10051;40.294;-3.754;2023-04-28T08:49:56;94062.25;;;23.38;37.82
19783;BME280;10051;40.294;-3.754;2023-04-28T08:52:28;94058.47;;;23.43;37.57
19783;BME280;10051;40.294;-3.754;2023-04-28T08:54:55;94022.19;;;23.22;38.05
19783;BME280;10051;40.294;-3.754;2023-04-28T08:57:24;94060.31;;;23.66;37.52
19783;BME280;10051;40.294;-3.754;2023-04-28T08:59:51;94055.06;;;23.76;37.80
19783;BME280;10051;40.294;-3.754;2023-04-28T09:02:18;94041.25;;;23.74;36.98
19783;BME280;10051;40.294;-3.754;2023-04-28T09:04:45;94039.03;;;23.80;37.33
19783;BME280;10051;40.294;-3.754;2023-04-28T09:07:11;94066.91;;;24.02;36.83
19783;BME280;10051;40.294;-3.754;2023-04-28T09:09:38;94056.81;;;23.96;36.06
19783;BME280;10051;40.294;-3.754;2023-04-28T09:12:05;94050.41;;;24.04;36.61
19783;BME280;10051;40.294;-3.754;2023-04-28T09:14:32;94063.28;;;24.22;36.08
19783;BME280;10051;40.294;-3.754;2023-04-28T09:16:59;94064.19;;;24.37;35.71
19783;BME280;10051;40.294;-3.754;2023-04-28T09:19:35;94022.53;;;24.16;35.93
19783;BME280;10051;40.294;-3.754;2023-04-28T09:22:00;94053.44;;;24.37;36.71
19783;BME280;10051;40.294;-3.754;2023-04-28T09:24:37;94054.19;;;24.37;36.67
19783;BME280;10051;40.294;-3.754;2023-04-28T09:27:08;94061.28;;;24.56;35.66
19783;BME280;10051;40.294;-3.754;2023-04-28T09:29:36;94068.75;;;24.74;35.15
19783;BME280;10051;40.294;-3.754;2023-04-28T09:32:15;94071.88;;;24.79;34.52
19783;BME280;10051;40.294;-3.754;2023-04-28T09:34:52;94008.09;;;24.28;35.31
19783;BME280;10051;40.294;-3.754;2023-04-28T09:37:20;94080.66;;;24.76;35.26
19783;BME280;10051;40.294;-3.754;2023-04-28T09:39:47;94084.94;;;24.81;34.84
19783;BME280;10051;40.294;-3.754;2023-04-28T09:42:40;94093.09;;;24.88;34.73
19783;BME280;10051;40.294;-3.754;2023-04-28T09:45:11;94053.03;;;24.76;35.49
19783;BME280;10051;40.294;-3.754;2023-04-28T09:47:40;94063.63;;;25.10;35.89
19783;BME280;10051;40.294;-3.754;2023-04-28T09:50:09;94071.88;;;25.32;35.48
19783;BME280;10051;40.294;-3.754;2023-04-28T09:52:37;94088.94;;;25.54;34.29
19783;BME280;10051;40.294;-3.754;2023-04-28T09:55:04;94065.03;;;25.45;34.75
19783;BME280;10051;40.294;-3.754;2023-04-28T09:57:31;94067.00;;;25.56;34.27
19783;BME280;10051;40.294;-3.754;2023-04-28T09:59:58;94084.34;;;25.65;33.55
19783;BME280;10051;40.294;-3.754;2023-04-28T10:02:25;94088.22;;;25.68;33.59
19783;BME280;10051;40.294;-3.754;2023-04-28T10:04:51;94108.63;;;25.73;34.08
19783;BME280;10051;40.294;-3.754;2023-04-28T10:07:20;94097.53;;;25.81;33.29
19783;BME280;10051;40.294;-3.754;2023-04-28T10:09:49;94098.69;;;25.88;33.45
19783;BME280;10051;40.294;-3.754;2023-04-28T10:12:16;94058.97;;;25.63;33.53
19783;BME280;10051;40.294;-3.754;2023-04-28T10:14:42;94087.13;;;25.80;33.52
19783;BME280;10051;40.294;-3.754;2023-04-28T10:17:09;94093.41;;;26.09;33.43
19783;BME280;10051;40.294;-3.754;2023-04-28T10:19:36;94102.38;;;26.42;32.54
19783;BME280;10051;40.294;-3.754;2023-04-28T10:22:23;94064.66;;;26.50;32.72
19783;BME280;10051;40.294;-3.754;2023-04-28T10:25:16;94097.81;;;26.90;31.66
19783;BME280;10051;40.294;-3.754;2023-04-28T10:27:46;94063.13;;;26.96;32.07
19783;BME280;10051;40.294;-3.754;2023-04-28T10:30:23;94033.09;;;27.05;30.76
19783;BME280;10051;40.294;-3.754;2023-04-28T10:40:38;94084.56;;;27.83;28.95
19783;BME280;10051;40.294;-3.754;2023-04-28T10:43:04;94087.63;;;27.96;29.08
19783;BME280;10051;40.294;-3.754;2023-04-28T10:48:17;94074.44;;;28.12;28.93
19783;BME280;10051;40.294;-3.754;2023-04-28T10:56:23;94067.06;;;28.24;28.29
19783;BME280;10051;40.294;-3.754;2023-04-28T10:58:54;94035.03;;;28.22;27.62
19783;BME280;10051;40.294;-3.754;2023-04-28T11:06:45;94061.72;;;28.76;27.55
19783;BME280;10051;40.294;-3.754;2023-04-28T11:11:37;94068.50;;;28.99;26.99
19783;BME280;10051;40.294;-3.754;2023-04-28T11:16:56;94068.06;;;29.04;27.45
19783;BME280;10051;40.294;-3.754;2023-04-28T11:19:27;94076.00;;;29.26;27.04
19783;BME280;10051;40.294;-3.754;2023-04-28T11:21:54;94069.84;;;29.22;27.73
19783;BME280;10051;40.294;-3.754;2023-04-28T11:24:22;94060.50;;;29.27;27.10
19783;BME280;10051;40.294;-3.754;2023-04-28T11:26:49;94018.06;;;29.16;27.17
19783;BME280;10051;40.294;-3.754;2023-04-28T11:29:15;94051.00;;;29.53;26.30
19783;BME280;10051;40.294;-3.754;2023-04-28T11:31:48;94072.69;;;29.84;25.14
19783;BME280;10051;40.294;-3.754;2023-04-28T11:34:20;94064.19;;;29.86;25.28
19783;BME280;10051;40.294;-3.754;2023-04-28T11:36:46;93986.53;;;29.41;24.54
19783;BME280;10051;40.294;-3.754;2023-04-28T11:39:12;94025.97;;;29.76;24.10
19783;BME280;10051;40.294;-3.754;2023-04-28T11:41:43;94022.88;;;29.78;24.65
19783;BME280;10051;40.294;-3.754;2023-04-28T11:44:13;93998.94;;;29.73;24.09
19783;BME280;10051;40.294;-3.754;2023-04-28T11:46:46;94059.81;;;30.26;23.40
19783;BME280;10051;40.294;-3.754;2023-04-28T11:49:16;94042.97;;;30.39;23.59
19783;BME280;10051;40.294;-3.754;2023-04-28T11:51:42;94026.34;;;30.37;23.49
19783;BME280;10051;40.294;-3.754;2023-04-28T11:54:10;93961.44;;;29.99;23.56
19783;BME280;10051;40.294;-3.754;2023-04-28T11:56:37;94036.50;;;30.60;21.35
19783;BME280;10051;40.294;-3.754;2023-04-28T11:59:08;94044.25;;;30.62;20.40
19783;BME280;10051;40.294;-3.754;2023-04-28T12:01:50;94034.69;;;30.50;21.39
19783;BME280;10051;40.294;-3.754;2023-04-28T12:04:33;94036.19;;;30.54;21.45
19783;BME280;10051;40.294;-3.754;2023-04-28T12:07:15;94031.59;;;30.75;21.21
19783;BME280;10051;40.294;-3.754;2023-04-28T12:10:08;94000.06;;;30.61;21.17
19783;BME280;10051;40.294;-3.754;2023-04-28T12:12:33;94020.53;;;30.90;21.62
19783;BME280;10051;40.294;-3.754;2023-04-28T12:15:04;93994.50;;;30.68;22.31
19783;BME280;10051;40.294;-3.754;2023-04-28T12:17:37;93977.47;;;30.68;22.43
19783;BME280;10051;40.294;-3.754;2023-04-28T12:20:08;94018.75;;;31.03;21.71
19783;BME280;10051;40.294;-3.754;2023-04-28T12:25:10;94017.56;;;31.28;21.51
19783;BME280;10051;40.294;-3.754;2023-04-28T12:27:37;94031.72;;;31.39;22.18
19783;BME280;10051;40.294;-3.754;2023-04-28T12:30:25;94031.03;;;31.55;20.54
19783;BME280;10051;40.294;-3.754;2023-04-28T12:32:51;94018.22;;;31.56;20.62
19783;BME280;10051;40.294;-3.754;2023-04-28T12:35:20;93999.81;;;31.43;21.80
19783;BME280;10051;40.294;-3.754;2023-04-28T12:37:46;94021.47;;;31.67;21.11
19783;BME280;10051;40.294;-3.754;2023-04-28T12:40:11;94004.63;;;31.56;20.78
19783;BME280;10051;40.294;-3.754;2023-04-28T12:42:39;94012.56;;;31.67;21.05
19783;BME280;10051;40.294;-3.754;2023-04-28T12:45:05;94005.16;;;31.67;20.81
19783;BME280;10051;40.294;-3.754;2023-04-28T12:47:31;93997.44;;;31.66;21.06
19783;BME280;10051;40.294;-3.754;2023-04-28T12:49:56;93980.66;;;31.71;21.30
19783;BME280;10051;40.294;-3.754;2023-04-28T12:52:22;93974.22;;;31.81;20.40
19783;BME280;10051;40.294;-3.754;2023-04-28T12:54:48;93987.47;;;31.99;19.92
19783;BME280;10051;40.294;-3.754;2023-04-28T12:57:17;93999.38;;;32.22;19.59
19783;BME280;10051;40.294;-3.754;2023-04-28T12:59:44;93989.41;;;32.36;18.06
19783;BME280;10051;40.294;-3.754;2023-04-28T13:02:12;93993.81;;;32.29;18.03
19783;BME280;10051;40.294;-3.754;2023-04-28T13:04:39;93959.94;;;32.14;17.60
19783;BME280;10051;40.294;-3.754;2023-04-28T13:07:04;93971.69;;;32.27;17.79
19783;BME280;10051;40.294;-3.754;2023-04-28T13:09:31;93994.28;;;32.24;18.64
19783;BME280;10051;40.294;-3.754;2023-04-28T13:11:57;93926.28;;;31.91;18.85
19783;BME280;10051;40.294;-3.754;2023-04-28T13:14:25;93952.06;;;32.19;18.95
19783;BME280;10051;40.294;-3.754;2023-04-28T13:16:52;93996.38;;;32.53;18.44
19783;BME280;10051;40.294;-3.754;2023-04-28T13:19:17;93968.00;;;32.38;18.29
19783;BME280;10051;40.294;-3.754;2023-04-28T13:21:43;93987.69;;;32.58;18.34